Flight Track Log - Related Links

Times and Time Zones

All times are in EDT time to prevent confusion due to time zone crossing. See the EJA646 flight status page for this flight to view local times or setup timezone preferences in your user account.


Time Position Orientation Groundspeed Altitude Reporting Facility
EDT Latitude Longitude Course Direction KTS MPH feet Rate Location/Type
Sun 12:26:29 PM 34.3406 -77.8381 26° Northeast 209 241 6,000  Level Washington Center
Sun 12:27:29 PM 34.4081 -77.7972 27° Northeast 234 269 8,400 2,400 Climbing Washington Center
Sun 12:28:29 PM 34.4842 -77.7514 26° Northeast 265 305 10,800 2,350 Climbing Washington Center
Sun 12:29:29 PM 34.5664 -77.7006 27° Northeast 303 349 13,100 2,300 Climbing Washington Center
Sun 12:30:29 PM 34.6486 -77.6494 27° Northeast 318 366 15,400 2,300 Climbing Washington Center
Sun 12:31:00 PM 34.9317 -77.4943 26° Northeast  Level FlightAware Approximate
Sun 12:31:29 PM 34.7308 -77.5961 28° Northeast 328 377 17,700  Level Washington Center
Sun 12:32:29 PM 34.8214 -77.5428 26° Northeast 335 386 19,600 2,050 Climbing Washington Center
Sun 12:33:29 PM 34.9017 -77.4864 30° Northeast 351 404 21,800 2,250 Climbing Washington Center
Sun 12:34:29 PM 34.9986 -77.4253 27° Northeast 365 420 24,100 2,100 Climbing Washington Center
Sun 12:35:29 PM 35.0975 -77.3639 27° Northeast 379 436 26,000 1,800 Climbing Washington Center
Sun 12:36:29 PM 35.1986 -77.3003 27° Northeast 394 453 27,700 1,650 Climbing Washington Center
Sun 12:37:29 PM 35.3019 -77.2336 28° Northeast 406 467 29,300 1,550 Climbing Washington Center
Sun 12:38:29 PM 35.4114 -77.1644 27° Northeast 417 480 30,800 1,550 Climbing Washington Center
Sun 12:39:29 PM 35.5206 -77.0953 27° Northeast 427 491 32,400 1,550 Climbing Washington Center
Sun 12:40:29 PM 35.6322 -77.0256 27° Northeast 432 497 33,900 1,300 Climbing Washington Center
Sun 12:41:29 PM 35.7478 -76.9483 28° Northeast 432 497 35,000 550 Climbing Washington Center
Sun 12:42:29 PM 35.8656 -76.8736 27° Northeast 448 516 35,000  Level Washington Center
Sun 12:43:29 PM 35.9894 -76.7958 27° Northeast 467 537 35,000  Level Washington Center
Sun 12:44:29 PM 36.1133 -76.7131 28° Northeast 488 562 35,000  Level Washington Center
Sun 12:45:29 PM 36.2369 -76.6325 28° Northeast 498 573 35,000  Level Washington Center
Sun 12:46:29 PM 36.3608 -76.5539 27° Northeast 493 567 35,000  Level Washington Center
Sun 12:47:29 PM 36.4825 -76.4728 28° Northeast 493 567 35,000  Level Washington Center
Sun 12:48:29 PM 36.6039 -76.3942 27° Northeast 493 567 35,000  Level Washington Center
Sun 12:49:29 PM 36.7150 -76.3200 28° Northeast 493 567 35,000  Level Washington Center
Sun 12:50:29 PM 36.8386 -76.2356 29° Northeast 498 573 35,000  Level Washington Center
Sun 12:51:29 PM 36.9581 -76.1403 33° Northeast 503 579 35,000  Level Washington Center
Sun 12:52:29 PM 37.0836 -76.0319 35° Northeast 512 589 35,000  Level Washington Center
Sun 12:53:29 PM 37.1986 -75.9283 36° Northeast 512 589 35,000  Level Washington Center
Sun 12:54:29 PM 37.3117 -75.8269 35° Northeast 507 583 35,000  Level Washington Center
Sun 12:55:29 PM 37.4097 -75.7356 37° Northeast 497 572 35,000  Level Washington Center
Sun 12:56:29 PM 37.5225 -75.6311 36° Northeast 497 572 35,000  Level Washington Center
Sun 12:57:29 PM 37.6350 -75.5289 36° Northeast 497 572 35,000  Level Washington Center
Sun 12:58:29 PM 37.7475 -75.4264 36° Northeast 497 572 35,000  Level Washington Center
Sun 12:59:29 PM 37.8600 -75.3236 36° Northeast 497 572 35,000 700 Level Washington Center
Sun 01:00:29 PM 37.9703 -75.2231 36° Northeast 497 572 36,400 1,000 Climbing Washington Center
Sun 01:01:29 PM 38.0742 -75.1222 37° Northeast 484 557 37,000 300 Climbing Washington Center
Sun 01:02:29 PM 38.1864 -75.0186 36° Northeast 484 557 37,000  Level Washington Center
Sun 01:03:29 PM 38.2961 -74.9092 38° Northeast 495 570 37,000  Level Washington Center
Sun 01:04:29 PM 38.4103 -74.8022 36° Northeast 500 575 37,000  Level Washington Center
Sun 01:05:29 PM 38.5200 -74.7000 36° Northeast 500 575 37,000  Level Washington Center
Sun 01:06:29 PM 38.6297 -74.5950 37° Northeast 500 575 37,000  Level Washington Center
Sun 01:07:29 PM 38.7433 -74.4872 36° Northeast 500 575 37,000  Level Washington Center
Sun 01:08:29 PM 38.8550 -74.3814 36° Northeast 500 575 37,000  Level Washington Center
Sun 01:09:29 PM 38.9664 -74.2728 37° Northeast 500 575 37,000  Level Washington Center
Sun 01:10:29 PM 39.0778 -74.1692 36° Northeast 500 575 37,000  Level Washington Center
Sun 01:11:29 PM 39.2042 -74.1183 17° North 470 541 37,000  Level Washington Center
Sun 01:12:29 PM 39.3394 -74.0889 10° North 477 549 37,000  Level Washington Center
Sun 01:13:29 PM 39.4661 -74.0539 12° North 471 542 37,000  Level Washington Center
Sun 01:14:29 PM 39.5794 -73.9681 30° Northeast 465 535 37,000 -270 Level Washington Center
Sun 01:16:27 PM 39.7736 -73.7250 44° Northeast 507 583 36,200 -607 Descending Boston Center
Sun 01:17:27 PM 39.8483 -73.5697 58° Northeast 507 583 35,200 -600 Descending Boston Center
Sun 01:18:27 PM 39.9475 -73.4278 48° Northeast 489 563 35,000 -100 Descending Boston Center
Sun 01:19:27 PM 40.0294 -73.3342 41° Northeast 476 548 35,000  Level Boston Center
Sun 01:20:27 PM 40.1556 -73.1975 40° Northeast 476 548 35,000  Level Boston Center
Sun 01:21:27 PM 40.2481 -73.0844 43° Northeast 486 559 35,000 -50 Level Boston Center
Sun 01:22:27 PM 40.3486 -72.9711 41° Northeast 486 559 34,900 -900 Descending Boston Center
Sun 01:23:27 PM 40.4406 -72.8681 40° Northeast 481 554 33,200 -2,050 Descending Boston Center
Sun 01:24:27 PM 40.5578 -72.7269 42° Northeast 481 554 30,800 -2,250 Descending Boston Center
Sun 01:25:27 PM 40.6561 -72.6181 40° Northeast 476 548 28,700 -2,050 Descending Boston Center
Sun 01:26:27 PM 40.7519 -72.5142 39° Northeast 456 525 26,700 -1,864 Descending Boston Center
Sun 01:27:39 PM 40.8436 -72.4100 41° Northeast 439 505 24,600 -2,091 Descending Boston Center
Sun 01:28:39 PM 40.9750 -72.3275 25° Northeast 439 505 22,100 -2,150 Descending Boston Center
Sun 01:29:39 PM 41.0872 -72.2667 22° Northeast 429 494 20,300 -1,700 Descending Boston Center
Sun 01:30:39 PM 41.1811 -72.2111 24° Northeast 419 482 18,700 -1,450 Descending Boston Center
Sun 01:31:39 PM 41.2956 -72.1694 15° North 400 460 17,400 -800 Descending Boston Center
Sun 01:32:39 PM 41.3997 -72.1522 North 383 441 17,100 -150 Descending Boston Center
Sun 01:33:39 PM 41.5017 -72.1353 North 373 429 17,100  Level Boston Center
Sun 01:34:39 PM 41.6058 -72.1153 North 373 429 17,100 -300 Level Boston Center
Sun 01:35:39 PM 41.7100 -72.0981 North 373 429 16,500 -1,200 Descending Boston Center
Sun 01:36:39 PM 41.8058 -72.0836 North 362 417 14,700 -2,300 Descending Boston Center
Sun 01:37:39 PM 41.8933 -72.0692 North 329 379 11,900 -2,658 Descending Boston Center
Sun 01:37:58 PM 41.9164 -72.0664 North 311 358 11,200 -2,200 Descending Boston Center
Sun 01:38:39 PM 41.9683 -72.0353 24° Northeast 284 327 9,700 -1,723 Descending Boston Center
Sun 01:39:39 PM 42.0389 -71.9900 25° Northeast 273 314 8,300 -1,481 Descending Boston Center
Sun 01:40:00 PM 42.0619 -71.9786 20° North 275 316 7,700 -1,600 Descending Boston Center
Sun 01:40:39 PM 42.1056 -71.9533 23° Northeast 267 307 6,700 -1,279 Descending Boston Center
Sun 01:41:01 PM 42.1264 -71.9392 27° Northeast 246 283 6,400 -900 Descending Boston Center
Sun 01:41:39 PM 42.1678 -71.9164 22° Northeast 251 289 5,800 -984 Descending Boston Center
Sun 01:42:02 PM 42.1886 -71.9022 27° Northeast 242 278 5,400 -700 Descending Boston Center
Sun 01:42:39 PM 42.2197 -71.8794 28° Northeast 244 281 5,100 -186 Descending Boston Center
Sun 01:43:39 PM 42.2842 -71.8283 30° Northeast 237 273 5,100  Level Boston Center
Sun 01:44:39 PM 42.3317 -71.7744 40° Northeast 242 278 5,100  Level Boston Center
Sun 01:45:39 PM 42.3792 -71.7008 49° Northeast 237 273 5,100 -50 Level Boston Center
Sun 01:46:39 PM 42.4164 -71.6414 50° Northeast 226 260 5,000  Descending Boston Center
Sun 01:47:07 PM 42.4333 -71.6000 61° Northeast 233 268 5,100 -545 Climbing KA90
Sun 01:48:07 PM 42.4833 -71.5333 45° Northeast 257 296 4,200 -900 Descending KA90
Sun 01:49:07 PM 42.5333 -71.4667 44° Northeast 245 282 3,300 -950 Descending KA90
Sun 01:50:07 PM 42.5333 -71.3833 90° East 217 250 2,300 -645 Descending KA90
Sun 01:51:08 PM 42.5333 -71.3000 90° East 194 223 2,000 -333 Descending KA90
Sun 01:52:13 PM 42.5167 -71.2333 109° East 177 204 1,600 -454 Descending KA90
Sun 01:53:07 PM 42.4833 -71.2333 180° South 150 173 1,100 -556 Descending KA90

Login

Don't have an account? Register now (free) for customized features, flight alerts, and more!